Time;durP1;ratioP1;P1;durP2;ratioP2;P2;SDS_P1;SDS_P2;PMS_P1;PMS_P2;Temp;Humidity;BMP_temperature;BMP_pressure;BME280_temperature;BME280_humidity;BME280_pressure;Samples;Min_cycle;Max_cycle;Signal;HPM_P1;HPM_P2
2023/10/21 00:02:21;;;;;;;0.10;0.10;;;11.40;99.90;;;;;;5088656;28;20142;-64
2023/10/21 00:04:47;;;;;;;0.05;0.05;;;11.30;99.90;;;;;;5084442;28;20051;-64
2023/10/21 00:07:12;;;;;;;0.10;0.10;;;11.30;99.90;;;;;;5086149;27;20032;-64
2023/10/21 00:09:38;;;;;;;0.10;0.10;;;11.30;99.90;;;;;;5075846;28;20051;-64
2023/10/21 00:12:06;;;;;;;0.10;0.10;;;11.20;99.90;;;;;;5085365;28;20074;-64
2023/10/21 00:14:32;;;;;;;0.00;0.00;;;11.20;99.90;;;;;;5079505;28;20039;-64
2023/10/21 00:16:57;;;;;;;0.20;0.20;;;11.10;99.90;;;;;;5105283;27;20210;-64
2023/10/21 00:19:23;;;;;;;0.43;0.40;;;11.10;99.90;;;;;;5082610;28;20842;-64
2023/10/21 00:21:48;;;;;;;0.10;0.10;;;11.10;99.90;;;;;;5084576;28;20065;-64
2023/10/21 00:24:14;;;;;;;0.00;0.00;;;11.00;99.90;;;;;;5079902;28;20024;-64
2023/10/21 00:26:44;;;;;;;0.00;0.00;;;11.00;99.90;;;;;;5082766;28;20434;-64
2023/10/21 00:29:11;;;;;;;0.10;0.10;;;10.90;99.90;;;;;;5116104;27;20040;-64
2023/10/21 00:31:37;;;;;;;0.20;0.20;;;10.90;99.90;;;;;;5119286;27;20080;-64
2023/10/21 00:34:03;;;;;;;0.88;0.10;;;10.90;99.90;;;;;;5079910;28;20413;-63
2023/10/21 00:36:28;;;;;;;0.10;0.10;;;10.80;99.90;;;;;;5081384;27;20093;-64
2023/10/21 00:38:54;;;;;;;0.63;0.10;;;10.80;99.90;;;;;;5085131;28;20039;-64
2023/10/21 00:41:19;;;;;;;0.47;0.20;;;10.80;99.90;;;;;;5111805;27;20076;-64
2023/10/21 00:43:45;;;;;;;0.15;0.15;;;10.70;99.90;;;;;;5093776;28;20498;-64
2023/10/21 00:46:16;;;;;;;0.00;0.00;;;10.70;99.90;;;;;;5086550;27;20066;-64
2023/10/21 00:48:42;;;;;;;0.75;0.35;;;10.70;99.90;;;;;;5090620;27;20549;-63
2023/10/21 00:51:09;;;;;;;0.10;0.10;;;10.60;99.90;;;;;;5119212;27;20130;-64
2023/10/21 00:53:35;;;;;;;0.10;0.10;;;10.60;99.90;;;;;;5090576;28;20048;-64
2023/10/21 00:56:01;;;;;;;0.10;0.10;;;10.60;99.90;;;;;;5114509;27;21353;-64
2023/10/21 00:58:30;;;;;;;0.10;0.10;;;10.60;99.90;;;;;;5112872;27;20047;-64
2023/10/21 01:01:01;;;;;;;0.00;0.00;;;10.50;99.90;;;;;;5080694;28;20081;-64
2023/10/21 01:03:29;;;;;;;0.00;0.00;;;10.50;99.90;;;;;;5089098;27;20031;-64
2023/10/21 01:05:55;;;;;;;0.20;0.20;;;10.50;99.90;;;;;;5111099;27;20046;-65
2023/10/21 01:08:20;;;;;;;0.30;0.30;;;10.40;99.90;;;;;;5087814;28;20477;-64
2023/10/21 01:10:46;;;;;;;0.00;0.00;;;10.40;99.90;;;;;;5083187;28;20077;-64
2023/10/21 01:13:12;;;;;;;0.00;0.00;;;10.40;99.90;;;;;;5086566;27;20028;-65
2023/10/21 01:15:37;;;;;;;0.10;0.10;;;10.40;99.90;;;;;;5103743;27;20089;-65
2023/10/21 01:18:04;;;;;;;0.10;0.10;;;10.40;99.90;;;;;;5114861;27;20071;-64
2023/10/21 01:20:30;;;;;;;0.10;0.10;;;10.30;99.90;;;;;;5080656;28;20039;-64
2023/10/21 01:22:59;;;;;;;0.10;0.10;;;10.30;99.90;;;;;;5091517;27;21747;-65
2023/10/21 01:25:25;;;;;;;0.10;0.10;;;10.30;99.90;;;;;;5077370;28;20074;-64
2023/10/21 01:27:54;;;;;;;0.15;0.15;;;10.30;99.90;;;;;;5089105;28;20090;-64
2023/10/21 01:30:21;;;;;;;0.15;0.15;;;10.30;99.90;;;;;;5079561;27;20432;-65
2023/10/21 01:32:50;;;;;;;0.00;0.00;;;10.30;99.90;;;;;;5089858;27;20545;-64
2023/10/21 01:35:16;;;;;;;0.20;0.20;;;10.30;99.90;;;;;;5088817;28;20447;-64
2023/10/21 01:37:43;;;;;;;0.00;0.00;;;10.30;99.90;;;;;;5114109;27;20057;-64
2023/10/21 01:40:12;;;;;;;0.10;0.10;;;10.20;99.90;;;;;;5088549;28;20074;-64
2023/10/21 01:42:39;;;;;;;0.10;0.10;;;10.20;99.90;;;;;;5086257;28;20377;-65
2023/10/21 01:45:05;;;;;;;0.10;0.10;;;10.20;99.90;;;;;;5082690;28;20071;-64
2023/10/21 01:47:31;;;;;;;0.10;0.10;;;10.20;99.90;;;;;;5083178;28;20079;-64
2023/10/21 01:49:58;;;;;;;0.20;0.20;;;10.20;99.90;;;;;;5082814;27;20093;-64
2023/10/21 01:52:24;;;;;;;0.00;0.00;;;10.20;99.90;;;;;;5087684;28;20039;-64
2023/10/21 01:54:50;;;;;;;0.10;0.10;;;10.20;99.90;;;;;;5087229;28;20130;-64
2023/10/21 01:57:16;;;;;;;0.00;0.00;;;10.20;99.90;;;;;;5087593;27;20565;-64
2023/10/21 01:59:41;;;;;;;0.10;0.10;;;10.10;99.90;;;;;;5097784;27;20127;-64
2023/10/21 02:02:08;;;;;;;0.00;0.00;;;10.10;99.90;;;;;;5086048;27;20020;-64
2023/10/21 02:04:34;;;;;;;0.10;0.10;;;10.10;99.90;;;;;;5116589;27;20043;-64
2023/10/21 02:07:00;;;;;;;0.20;0.20;;;10.10;99.90;;;;;;5081286;27;20040;-64
2023/10/21 02:09:25;;;;;;;0.40;0.35;;;10.10;99.90;;;;;;5089750;28;20042;-64
2023/10/21 02:11:57;;;;;;;0.05;0.05;;;10.20;99.90;;;;;;5080956;28;20040;-64
2023/10/21 02:14:23;;;;;;;0.10;0.10;;;10.10;99.90;;;;;;5088163;28;20072;-64
2023/10/21 02:16:53;;;;;;;0.10;0.10;;;10.20;99.90;;;;;;5082857;28;20048;-64
2023/10/21 02:19:19;;;;;;;0.10;0.10;;;10.10;99.90;;;;;;5078271;28;20045;-64
2023/10/21 02:21:46;;;;;;;0.15;0.10;;;10.10;99.90;;;;;;5079680;28;20084;-64
2023/10/21 02:24:12;;;;;;;0.25;0.25;;;10.10;99.90;;;;;;5083602;28;20127;-64
2023/10/21 02:26:37;;;;;;;0.65;0.30;;;10.10;99.90;;;;;;5081415;28;20118;-64
2023/10/21 02:29:03;;;;;;;0.28;0.10;;;10.10;99.90;;;;;;5082166;28;20047;-64
2023/10/21 02:31:29;;;;;;;0.10;0.10;;;10.10;99.90;;;;;;5094702;28;20134;-65
2023/10/21 02:33:55;;;;;;;0.20;0.20;;;10.10;99.90;;;;;;5082778;28;20050;-64
2023/10/21 02:36:20;;;;;;;0.13;0.13;;;10.10;99.90;;;;;;5085093;28;20136;-64
2023/10/21 02:38:47;;;;;;;0.03;0.03;;;10.10;99.90;;;;;;5085160;28;20049;-64
2023/10/21 02:41:13;;;;;;;0.00;0.00;;;10.10;99.90;;;;;;5108473;28;20035;-64
2023/10/21 02:43:39;;;;;;;0.32;0.25;;;10.10;99.90;;;;;;5085468;28;20100;-64
2023/10/21 02:46:12;;;;;;;0.30;0.10;;;10.10;99.90;;;;;;5083654;28;20042;-64
2023/10/21 02:48:42;;;;;;;0.75;0.20;;;10.10;99.90;;;;;;5085691;28;20051;-64
2023/10/21 02:51:12;;;;;;;0.10;0.10;;;10.10;99.90;;;;;;5111310;28;20096;-65
2023/10/21 02:53:39;;;;;;;0.28;0.28;;;10.10;99.90;;;;;;5081257;28;20028;-65
2023/10/21 02:56:08;;;;;;;0.15;0.15;;;10.10;99.90;;;;;;5115863;28;20067;-65
2023/10/21 02:58:37;;;;;;;0.00;0.00;;;10.20;99.90;;;;;;5093209;28;20549;-64
2023/10/21 03:01:18;;;;;;;0.10;0.10;;;10.20;99.90;;;;;;5111641;28;20039;-64
2023/10/21 03:03:45;;;;;;;0.05;0.05;;;10.20;99.90;;;;;;5070587;28;20131;-64
2023/10/21 03:06:16;;;;;;;0.10;0.10;;;10.20;99.90;;;;;;5098145;28;20135;-65
2023/10/21 03:08:42;;;;;;;0.40;0.30;;;10.20;99.90;;;;;;5081380;28;20126;-64
2023/10/21 03:11:08;;;;;;;0.80;0.20;;;10.30;99.90;;;;;;5085122;28;20470;-64
2023/10/21 03:13:36;;;;;;;0.10;0.10;;;10.20;99.90;;;;;;5088329;28;20445;-65
2023/10/21 03:16:06;;;;;;;0.00;0.00;;;10.20;99.90;;;;;;5083168;28;20063;-65
2023/10/21 03:18:31;;;;;;;0.05;0.05;;;10.20;99.90;;;;;;5109278;28;20129;-65
2023/10/21 03:20:57;;;;;;;0.10;0.10;;;10.20;99.90;;;;;;5087032;28;20061;-65
2023/10/21 03:23:23;;;;;;;0.10;0.10;;;10.20;99.90;;;;;;5090459;28;20045;-64
2023/10/21 03:25:59;;;;;;;0.00;0.00;;;10.20;99.90;;;;;;5083046;28;20490;-64
2023/10/21 03:28:26;;;;;;;0.20;0.20;;;10.20;99.90;;;;;;5075176;27;20035;-65
2023/10/21 03:30:55;;;;;;;0.20;0.20;;;10.20;99.90;;;;;;5090682;27;20051;-64
2023/10/21 03:33:21;;;;;;;0.20;0.20;;;10.10;99.90;;;;;;5120773;27;20073;-64
2023/10/21 03:35:57;;;;;;;0.10;0.10;;;10.10;99.90;;;;;;5087297;28;20435;-65
2023/10/21 03:38:22;;;;;;;0.00;0.00;;;10.10;99.90;;;;;;5075151;28;20490;-65
2023/10/21 03:40:57;;;;;;;0.10;0.10;;;10.10;99.90;;;;;;5088479;27;20035;-64
2023/10/21 03:43:25;;;;;;;0.30;0.30;;;10.10;99.90;;;;;;5112154;27;20039;-64
2023/10/21 03:45:51;;;;;;;0.28;0.28;;;10.00;99.90;;;;;;5087764;28;20040;-65
2023/10/21 03:48:17;;;;;;;0.10;0.10;;;10.00;99.90;;;;;;5077765;28;20134;-65
2023/10/21 03:50:42;;;;;;;0.10;0.10;;;10.00;99.90;;;;;;5083826;28;20072;-64
2023/10/21 03:53:08;;;;;;;0.35;0.32;;;9.90;99.90;;;;;;5083667;28;20475;-65
2023/10/21 03:55:33;;;;;;;0.10;0.10;;;9.90;99.90;;;;;;5078073;28;20485;-65
2023/10/21 03:57:59;;;;;;;0.20;0.20;;;9.90;99.90;;;;;;5109713;27;20048;-65
2023/10/21 04:00:24;;;;;;;0.30;0.30;;;9.90;99.90;;;;;;5112556;27;20458;-64
2023/10/21 04:02:50;;;;;;;0.10;0.10;;;9.90;99.90;;;;;;5086929;27;20039;-64
2023/10/21 04:05:17;;;;;;;0.20;0.20;;;9.80;99.90;;;;;;5080179;28;20040;-65
2023/10/21 04:07:44;;;;;;;0.10;0.10;;;9.80;99.90;;;;;;5118353;27;20047;-64
2023/10/21 04:10:10;;;;;;;0.10;0.10;;;9.80;99.90;;;;;;5090695;27;20051;-64
2023/10/21 04:12:36;;;;;;;0.17;0.17;;;9.80;99.90;;;;;;5092594;27;20031;-64
2023/10/21 04:15:02;;;;;;;0.05;0.05;;;9.80;99.90;;;;;;5090738;27;20066;-65
2023/10/21 04:17:28;;;;;;;0.55;0.20;;;9.80;99.90;;;;;;5083649;28;20043;-64
2023/10/21 04:19:53;;;;;;;0.22;0.22;;;9.80;99.90;;;;;;5083565;28;20596;-64
2023/10/21 04:22:19;;;;;;;0.65;0.20;;;9.80;99.90;;;;;;5083702;28;20036;-65
2023/10/21 04:24:45;;;;;;;0.28;0.28;;;9.80;99.90;;;;;;5082950;28;21286;-64
2023/10/21 04:27:10;;;;;;;0.10;0.10;;;9.80;99.90;;;;;;5086006;27;20043;-64
2023/10/21 04:29:36;;;;;;;0.00;0.00;;;9.90;99.90;;;;;;5077703;28;20415;-65
2023/10/21 04:32:01;;;;;;;0.00;0.00;;;9.80;99.90;;;;;;5080693;28;20506;-64
2023/10/21 04:34:27;;;;;;;0.10;0.10;;;9.80;99.90;;;;;;5083743;28;20071;-65
2023/10/21 04:36:52;;;;;;;0.63;0.25;;;9.80;99.90;;;;;;5077979;28;20690;-64
2023/10/21 04:39:19;;;;;;;0.28;0.28;;;9.90;99.90;;;;;;5070329;27;20130;-64
2023/10/21 04:41:48;;;;;;;0.20;0.20;;;9.90;99.90;;;;;;5112991;27;20043;-64
2023/10/21 04:44:13;;;;;;;0.10;0.10;;;9.90;99.90;;;;;;5097050;27;20035;-64
2023/10/21 04:46:39;;;;;;;0.77;0.77;;;9.90;99.90;;;;;;5078389;27;20043;-65
2023/10/21 04:49:05;;;;;;;0.20;0.20;;;9.90;99.90;;;;;;5079316;28;20040;-65
2023/10/21 04:51:31;;;;;;;0.10;0.10;;;10.00;99.90;;;;;;5116928;27;20498;-64
2023/10/21 04:53:57;;;;;;;0.20;0.20;;;10.00;99.90;;;;;;5081950;28;20121;-65
2023/10/21 04:56:25;;;;;;;0.20;0.20;;;10.00;99.90;;;;;;5078892;28;20051;-65
2023/10/21 04:58:51;;;;;;;0.20;0.20;;;10.10;99.90;;;;;;5076619;27;20445;-65
2023/10/21 05:01:16;;;;;;;0.10;0.10;;;10.10;99.90;;;;;;5084954;28;20043;-65
2023/10/21 05:03:43;;;;;;;0.03;0.03;;;10.10;99.90;;;;;;5083077;28;20039;-65
2023/10/21 05:06:10;;;;;;;0.25;0.15;;;10.20;99.90;;;;;;5076835;28;20058;-65
2023/10/21 05:08:35;;;;;;;0.77;0.50;;;10.10;99.90;;;;;;5080673;28;20032;-65
2023/10/21 05:11:01;;;;;;;0.10;0.10;;;10.10;99.90;;;;;;5086936;28;20045;-65
2023/10/21 05:13:26;;;;;;;1.27;0.20;;;10.10;99.90;;;;;;5084752;28;20036;-65
2023/10/21 05:15:52;;;;;;;0.13;0.13;;;10.10;99.90;;;;;;5088118;28;20036;-65
2023/10/21 05:18:18;;;;;;;0.30;0.30;;;10.10;99.90;;;;;;5080298;28;20403;-64
2023/10/21 05:20:44;;;;;;;0.00;0.00;;;10.10;99.90;;;;;;5085136;28;20226;-64
2023/10/21 05:23:09;;;;;;;0.10;0.10;;;10.20;99.90;;;;;;5079585;28;20096;-65
2023/10/21 05:25:35;;;;;;;0.10;0.10;;;10.20;99.90;;;;;;5081340;28;20569;-65
2023/10/21 05:28:00;;;;;;;0.75;0.75;;;10.20;99.90;;;;;;5080661;27;20047;-65
2023/10/21 05:30:26;;;;;;;0.00;0.00;;;10.20;99.90;;;;;;5067184;27;20126;-64
2023/10/21 05:32:52;;;;;;;0.03;0.03;;;10.30;99.90;;;;;;5078419;28;20036;-64
2023/10/21 05:35:17;;;;;;;0.10;0.10;;;10.30;99.90;;;;;;5079520;27;20043;-64
2023/10/21 05:37:43;;;;;;;0.10;0.10;;;10.30;99.90;;;;;;5072967;28;20452;-65
2023/10/21 05:40:09;;;;;;;0.10;0.10;;;10.30;99.90;;;;;;5079440;28;20044;-64
2023/10/21 05:42:35;;;;;;;0.68;0.63;;;10.30;99.90;;;;;;5110710;27;20180;-64
2023/10/21 05:45:01;;;;;;;0.25;0.25;;;10.30;99.90;;;;;;5080749;28;20193;-64
2023/10/21 05:47:26;;;;;;;0.00;0.00;;;10.30;99.90;;;;;;5078376;28;20482;-64
2023/10/21 05:49:53;;;;;;;0.10;0.10;;;10.30;99.90;;;;;;5081902;27;20047;-64
2023/10/21 05:52:18;;;;;;;0.22;0.22;;;10.30;99.90;;;;;;5074417;28;20075;-64
2023/10/21 05:54:44;;;;;;;0.03;0.03;;;10.30;99.90;;;;;;5081499;28;20044;-64
2023/10/21 05:57:09;;;;;;;0.10;0.10;;;10.30;99.90;;;;;;5073478;28;20126;-64
2023/10/21 05:59:35;;;;;;;1.48;0.20;;;10.30;99.90;;;;;;5077476;28;20428;-64
2023/10/21 06:02:01;;;;;;;0.40;0.40;;;10.30;99.90;;;;;;5081047;28;20457;-64
2023/10/21 06:04:27;;;;;;;0.10;0.10;;;10.30;99.90;;;;;;5078238;28;20402;-64
2023/10/21 06:06:55;;;;;;;0.17;0.17;;;10.30;99.90;;;;;;5078340;28;20077;-65
2023/10/21 06:09:23;;;;;;;0.30;0.30;;;10.30;99.90;;;;;;5083163;28;20085;-65
2023/10/21 06:11:50;;;;;;;0.13;0.13;;;10.40;99.90;;;;;;5081135;28;20051;-65
2023/10/21 06:14:17;;;;;;;0.00;0.00;;;10.40;99.90;;;;;;5083748;28;20077;-65
2023/10/21 06:16:43;;;;;;;0.30;0.30;;;10.40;99.90;;;;;;5112477;27;20047;-65
2023/10/21 06:19:09;;;;;;;0.10;0.10;;;10.40;99.90;;;;;;5115792;27;20041;-65
2023/10/21 06:21:35;;;;;;;0.10;0.10;;;10.50;99.90;;;;;;5092359;28;20039;-65
2023/10/21 06:24:03;;;;;;;1.33;0.43;;;10.50;99.90;;;;;;5090891;28;20473;-65
2023/10/21 06:26:31;;;;;;;0.20;0.20;;;10.50;99.90;;;;;;5087019;28;20048;-65
2023/10/21 06:28:56;;;;;;;0.10;0.10;;;10.50;99.90;;;;;;5087344;28;20118;-65
2023/10/21 06:31:22;;;;;;;0.15;0.10;;;10.60;99.90;;;;;;5084575;28;20412;-65
2023/10/21 06:33:48;;;;;;;0.55;0.55;;;10.60;99.90;;;;;;5089483;28;20043;-65
2023/10/21 06:36:14;;;;;;;0.28;0.28;;;10.70;99.90;;;;;;5103879;28;20129;-64
2023/10/21 06:38:40;;;;;;;0.30;0.30;;;10.70;99.90;;;;;;5113061;27;20048;-64
2023/10/21 06:41:06;;;;;;;0.10;0.10;;;10.70;99.90;;;;;;5108493;28;20066;-65
2023/10/21 06:43:31;;;;;;;0.22;0.22;;;10.80;99.90;;;;;;5079212;28;20031;-64
2023/10/21 06:45:57;;;;;;;0.25;0.25;;;10.80;99.90;;;;;;5085944;28;20059;-65
2023/10/21 06:48:23;;;;;;;0.10;0.10;;;10.90;99.90;;;;;;5087788;28;20062;-65
2023/10/21 06:50:49;;;;;;;0.25;0.25;;;10.90;99.90;;;;;;5074445;28;20040;-65
2023/10/21 06:53:14;;;;;;;0.10;0.10;;;11.00;99.90;;;;;;5077487;28;20043;-65
2023/10/21 06:55:44;;;;;;;0.60;0.47;;;11.00;99.90;;;;;;5078698;28;20157;-65
2023/10/21 06:58:11;;;;;;;0.10;0.10;;;11.10;99.90;;;;;;5121254;27;20047;-65
2023/10/21 07:00:37;;;;;;;0.28;0.28;;;11.10;99.90;;;;;;5087293;28;20471;-65
2023/10/21 07:03:04;;;;;;;0.10;0.10;;;11.10;99.90;;;;;;5118406;27;20059;-65
2023/10/21 07:05:29;;;;;;;0.30;0.30;;;11.20;99.90;;;;;;5119110;27;20122;-65
2023/10/21 07:07:55;;;;;;;0.10;0.10;;;11.20;99.90;;;;;;5088594;28;20052;-65
2023/10/21 07:10:20;;;;;;;0.20;0.20;;;11.30;99.90;;;;;;5079825;28;20351;-65
2023/10/21 07:12:46;;;;;;;0.10;0.10;;;11.20;99.90;;;;;;5092142;28;20469;-65
2023/10/21 07:15:11;;;;;;;0.20;0.20;;;11.30;99.90;;;;;;5094601;28;20047;-65
2023/10/21 07:17:37;;;;;;;0.10;0.10;;;11.30;99.90;;;;;;5092074;28;20106;-65
2023/10/21 07:20:05;;;;;;;0.15;0.15;;;11.30;99.90;;;;;;5092712;28;20398;-65
2023/10/21 07:22:31;;;;;;;0.40;0.40;;;11.30;99.90;;;;;;5092219;28;20414;-65
2023/10/21 07:24:57;;;;;;;0.10;0.10;;;11.40;99.90;;;;;;5087129;27;20382;-65
2023/10/21 07:27:24;;;;;;;0.10;0.10;;;11.40;99.90;;;;;;5089476;27;20093;-65
2023/10/21 07:29:49;;;;;;;0.10;0.10;;;11.50;99.90;;;;;;5089705;28;20052;-65
2023/10/21 07:32:15;;;;;;;0.52;0.52;;;11.50;99.90;;;;;;5092216;28;20036;-65
2023/10/21 07:34:41;;;;;;;0.22;0.22;;;11.60;99.90;;;;;;5094742;28;20042;-65
2023/10/21 07:37:07;;;;;;;0.28;0.28;;;11.60;99.90;;;;;;5108751;28;20035;-65
2023/10/21 07:39:32;;;;;;;0.22;0.22;;;11.60;99.90;;;;;;5086146;28;20059;-65
2023/10/21 07:41:58;;;;;;;3.83;0.80;;;11.60;99.90;;;;;;5123999;27;20043;-65
2023/10/21 07:44:23;;;;;;;0.28;0.28;;;11.60;99.90;;;;;;5097382;28;20492;-65
2023/10/21 07:46:50;;;;;;;0.30;0.30;;;11.70;99.90;;;;;;5090661;28;20047;-65
2023/10/21 07:49:16;;;;;;;0.20;0.20;;;11.70;99.90;;;;;;5092730;28;20040;-65
2023/10/21 07:51:42;;;;;;;0.13;0.13;;;11.70;99.90;;;;;;5088164;28;20484;-64
2023/10/21 07:54:07;;;;;;;0.10;0.10;;;11.80;99.90;;;;;;5091590;28;20124;-65
2023/10/21 07:56:33;;;;;;;0.52;0.52;;;11.80;99.90;;;;;;5088873;28;20070;-65
2023/10/21 07:58:58;;;;;;;0.40;0.40;;;11.80;99.90;;;;;;5116765;27;20945;-64
2023/10/21 08:01:24;;;;;;;0.20;0.20;;;11.80;99.90;;;;;;5099483;28;20043;-65
2023/10/21 08:03:51;;;;;;;0.95;0.43;;;11.80;99.90;;;;;;5086590;28;20050;-64
2023/10/21 08:06:17;;;;;;;0.08;0.08;;;11.90;99.90;;;;;;5091260;28;20032;-64
2023/10/21 08:08:42;;;;;;;0.10;0.10;;;12.00;99.90;;;;;;5091277;28;20036;-64
2023/10/21 08:11:09;;;;;;;0.15;0.15;;;12.10;99.90;;;;;;5091798;28;20389;-64
2023/10/21 08:13:35;;;;;;;0.47;0.47;;;12.10;99.90;;;;;;5091443;28;20546;-64
2023/10/21 08:16:00;;;;;;;0.28;0.20;;;12.20;99.90;;;;;;5085996;28;20119;-64
2023/10/21 08:18:26;;;;;;;0.20;0.20;;;12.30;99.90;;;;;;5078116;28;20067;-64
2023/10/21 08:20:52;;;;;;;0.55;0.40;;;12.40;99.90;;;;;;5085179;28;20043;-64
2023/10/21 08:23:17;;;;;;;0.25;0.22;;;12.40;99.90;;;;;;5088771;28;20040;-64
2023/10/21 08:25:43;;;;;;;0.10;0.10;;;12.50;99.90;;;;;;5113048;27;20432;-64
2023/10/21 08:28:10;;;;;;;1.58;0.63;;;12.50;99.90;;;;;;5087465;28;20154;-64
2023/10/21 08:30:38;;;;;;;0.10;0.10;;;12.60;99.90;;;;;;5117651;27;20048;-64
2023/10/21 08:33:07;;;;;;;0.55;0.22;;;12.70;99.90;;;;;;5111440;27;20058;-64
2023/10/21 08:35:33;;;;;;;0.20;0.20;;;12.70;99.90;;;;;;5078269;28;20058;-64
2023/10/21 08:37:59;;;;;;;0.30;0.30;;;12.80;99.90;;;;;;5082173;28;20050;-64
2023/10/21 08:40:25;;;;;;;0.38;0.38;;;12.90;99.90;;;;;;5083090;28;20036;-64
2023/10/21 08:42:51;;;;;;;0.50;0.50;;;12.90;99.90;;;;;;5091237;28;20097;-64
2023/10/21 08:45:19;;;;;;;0.20;0.20;;;13.00;99.90;;;;;;5082378;28;20028;-64
2023/10/21 08:47:45;;;;;;;1.60;0.57;;;13.10;99.90;;;;;;5090098;28;20153;-65
2023/10/21 08:50:13;;;;;;;0.45;0.28;;;13.20;99.90;;;;;;5086501;27;20044;-64
2023/10/21 08:52:40;;;;;;;1.35;0.30;;;13.30;99.90;;;;;;5113730;27;20047;-64
2023/10/21 08:55:06;;;;;;;0.68;0.45;;;13.50;99.90;;;;;;5118960;27;20046;-64
2023/10/21 08:57:36;;;;;;;0.32;0.32;;;13.70;99.90;;;;;;5086972;28;20033;-64
2023/10/21 09:00:04;;;;;;;0.22;0.22;;;13.80;99.90;;;;;;5082977;28;20166;-64
2023/10/21 09:02:30;;;;;;;0.25;0.20;;;13.80;99.90;;;;;;5088442;28;20051;-64
2023/10/21 09:04:55;;;;;;;0.95;0.65;;;13.90;99.90;;;;;;5087776;28;20047;-65
2023/10/21 09:07:22;;;;;;;0.55;0.55;;;13.90;99.90;;;;;;5084851;28;20122;-64
2023/10/21 09:09:48;;;;;;;0.20;0.20;;;13.80;99.90;;;;;;5082522;28;20710;-64
2023/10/21 09:12:14;;;;;;;0.43;0.30;;;13.80;99.90;;;;;;5126441;27;20063;-65
2023/10/21 09:14:52;;;;;;;0.55;0.52;;;13.80;99.90;;;;;;5073354;27;20097;-64
2023/10/21 09:17:19;;;;;;;0.30;0.28;;;13.70;99.90;;;;;;5080881;28;20398;-65
2023/10/21 09:19:48;;;;;;;0.28;0.28;;;13.60;99.90;;;;;;5117230;27;20134;-64
2023/10/21 09:22:26;;;;;;;0.55;0.55;;;13.60;99.90;;;;;;5112488;27;20048;-64
2023/10/21 09:25:31;;;;;;;5.10;0.50;;;13.60;99.90;;;;;;5078082;28;20543;-65
2023/10/21 09:27:56;;;;;;;0.25;0.25;;;13.60;99.90;;;;;;4995347;28;20130;-65
2023/10/21 09:30:24;;;;;;;0.40;0.40;;;13.60;99.90;;;;;;5004291;28;20045;-65
2023/10/21 09:32:50;;;;;;;0.32;0.32;;;13.60;99.90;;;;;;5038531;28;20169;-65
2023/10/21 09:35:21;;;;;;;1.33;0.40;;;13.60;99.90;;;;;;5077025;28;20040;-64
2023/10/21 09:37:47;;;;;;;0.45;0.45;;;13.50;99.90;;;;;;5083508;28;20047;-64
2023/10/21 09:40:13;;;;;;;0.30;0.30;;;13.50;99.90;;;;;;5089166;28;20063;-65
2023/10/21 09:42:43;;;;;;;0.55;0.55;;;13.50;99.90;;;;;;5068046;28;20055;-65
2023/10/21 09:45:11;;;;;;;0.20;0.20;;;13.50;99.90;;;;;;5087400;28;20283;-65
2023/10/21 09:47:40;;;;;;;0.10;0.10;;;13.60;99.90;;;;;;5087629;28;20035;-65
2023/10/21 09:50:10;;;;;;;0.15;0.15;;;13.60;99.90;;;;;;5078066;28;20036;-65
2023/10/21 09:52:55;;;;;;;0.30;0.13;;;13.60;99.90;;;;;;5120371;27;20109;-65
2023/10/21 09:55:25;;;;;;;1.05;0.65;;;13.60;99.90;;;;;;5072370;28;20115;-66
2023/10/21 09:57:57;;;;;;;0.10;0.10;;;13.60;99.90;;;;;;5081877;28;20131;-65
2023/10/21 10:00:24;;;;;;;0.20;0.20;;;13.70;99.90;;;;;;5077806;28;20054;-65
2023/10/21 10:02:53;;;;;;;0.50;0.25;;;13.80;99.90;;;;;;5090077;28;20054;-64
2023/10/21 10:05:20;;;;;;;0.52;0.10;;;13.80;99.90;;;;;;5084900;28;20039;-65
2023/10/21 10:07:47;;;;;;;0.43;0.30;;;13.80;99.90;;;;;;5089091;27;20055;-65
2023/10/21 10:10:16;;;;;;;1.45;1.30;;;13.80;99.90;;;;;;5083602;28;20044;-64
2023/10/21 10:12:53;;;;;;;0.10;0.10;;;13.80;99.90;;;;;;5082504;28;20043;-65
2023/10/21 10:15:33;;;;;;;0.30;0.30;;;13.70;99.90;;;;;;5087287;28;20039;-66
2023/10/21 10:18:02;;;;;;;0.63;0.63;;;13.60;99.90;;;;;;5072899;28;20070;-66
2023/10/21 10:20:28;;;;;;;0.20;0.20;;;13.60;99.90;;;;;;5124045;27;20028;-66
2023/10/21 10:23:08;;;;;;;0.10;0.10;;;13.70;99.90;;;;;;5079009;28;20040;-65
2023/10/21 10:25:39;;;;;;;0.10;0.10;;;13.70;99.90;;;;;;5075875;28;20096;-65
2023/10/21 10:28:16;;;;;;;0.10;0.10;;;13.80;99.90;;;;;;5113773;27;20135;-65
2023/10/21 10:30:45;;;;;;;0.00;0.00;;;13.80;99.90;;;;;;5110305;27;20390;-65
2023/10/21 10:33:22;;;;;;;0.20;0.20;;;13.80;99.90;;;;;;5082405;28;20395;-64
2023/10/21 10:35:53;;;;;;;0.15;0.15;;;13.90;99.90;;;;;;5072259;28;20466;-65
2023/10/21 10:38:34;;;;;;;0.45;0.45;;;14.00;99.90;;;;;;5098777;28;20086;-64
2023/10/21 10:41:06;;;;;;;0.10;0.10;;;14.10;99.90;;;;;;5078601;28;20036;-65
2023/10/21 10:43:32;;;;;;;0.10;0.10;;;14.10;99.90;;;;;;5110831;28;21501;-65
2023/10/21 10:46:00;;;;;;;0.32;0.30;;;14.10;99.90;;;;;;5077291;28;20047;-65
2023/10/21 10:48:26;;;;;;;0.10;0.10;;;14.10;99.90;;;;;;5113517;28;20055;-66
2023/10/21 10:51:00;;;;;;;0.57;0.40;;;14.00;99.90;;;;;;5111018;28;20051;-66
2023/10/21 10:53:27;;;;;;;0.10;0.10;;;13.90;99.90;;;;;;5102045;28;20036;-65
2023/10/21 10:55:54;;;;;;;0.10;0.10;;;13.90;99.90;;;;;;5079967;28;20044;-65
2023/10/21 10:58:20;;;;;;;0.13;0.13;;;13.90;99.90;;;;;;5088243;28;20117;-64
2023/10/21 11:00:47;;;;;;;0.10;0.10;;;13.80;99.90;;;;;;5073292;28;20511;-63
2023/10/21 11:03:31;;;;;;;0.20;0.20;;;13.80;99.90;;;;;;5114627;28;20042;-65
2023/10/21 11:05:58;;;;;;;0.08;0.08;;;13.80;99.90;;;;;;5078663;28;20124;-65
2023/10/21 11:08:25;;;;;;;0.17;0.17;;;13.90;99.90;;;;;;5079540;28;20971;-64
2023/10/21 11:10:53;;;;;;;3.13;0.73;;;13.90;99.90;;;;;;5075259;28;20048;-65
2023/10/21 11:13:22;;;;;;;0.10;0.10;;;13.90;99.90;;;;;;5078957;28;20499;-65
2023/10/21 11:15:51;;;;;;;0.10;0.10;;;13.80;99.90;;;;;;5081711;28;20505;-65
2023/10/21 11:18:18;;;;;;;0.10;0.10;;;13.80;99.90;;;;;;5079793;28;20521;-64
2023/10/21 11:20:53;;;;;;;0.00;0.00;;;13.80;99.90;;;;;;5078863;28;20482;-64
2023/10/21 11:23:20;;;;;;;2.45;0.80;;;13.80;99.90;;;;;;5075277;28;20443;-66
2023/10/21 11:25:51;;;;;;;0.52;0.52;;;13.80;99.90;;;;;;5077834;28;20037;-65
2023/10/21 11:28:17;;;;;;;0.30;0.20;;;13.80;99.90;;;;;;5078312;28;20039;-64
2023/10/21 11:30:49;;;;;;;0.00;0.00;;;13.80;99.90;;;;;;5074879;28;20433;-65
2023/10/21 11:33:18;;;;;;;0.10;0.10;;;13.80;99.90;;;;;;5105551;28;20047;-64
2023/10/21 11:35:45;;;;;;;0.00;0.00;;;13.80;99.90;;;;;;5115291;27;20067;-64
2023/10/21 11:38:18;;;;;;;0.05;0.05;;;13.80;99.90;;;;;;5076132;28;20067;-65
2023/10/21 11:40:45;;;;;;;0.10;0.10;;;13.90;99.90;;;;;;5103230;28;20035;-64
2023/10/21 11:43:12;;;;;;;0.73;0.73;;;13.90;99.90;;;;;;5080427;28;20040;-65
2023/10/21 11:45:41;;;;;;;0.28;0.28;;;13.90;99.90;;;;;;5075291;28;20129;-65
2023/10/21 11:48:10;;;;;;;0.20;0.20;;;14.00;99.90;;;;;;5078150;28;20116;-65
2023/10/21 11:50:47;;;;;;;0.10;0.10;;;14.10;99.90;;;;;;5085430;27;20043;-66
2023/10/21 11:53:13;;;;;;;0.10;0.10;;;14.10;99.90;;;;;;5079717;27;20102;-65
2023/10/21 12:04:43;;;;;;;0.00;0.00;;;14.60;99.90;;;;;;5080888;28;20043;-66
2023/10/21 12:20:45;;;;;;;0.10;0.10;;;14.70;99.90;;;;;;5085582;28;20153;-65
2023/10/21 12:23:37;;;;;;;0.20;0.20;;;14.70;99.90;;;;;;5114847;27;20055;-66
2023/10/21 12:36:42;;;;;;;0.50;0.50;;;15.10;99.90;;;;;;5079715;28;20093;-66
2023/10/21 12:41:41;;;;;;;0.57;0.10;;;15.00;99.90;;;;;;5111272;27;20610;-66
2023/10/21 12:44:13;;;;;;;0.10;0.10;;;14.90;99.90;;;;;;5081334;28;20043;-66
2023/10/21 12:46:42;;;;;;;0.03;0.03;;;14.90;99.90;;;;;;5082800;28;20173;-67
2023/10/21 12:49:17;;;;;;;0.10;0.10;;;14.80;99.90;;;;;;5081399;28;20126;-67
2023/10/21 12:51:42;;;;;;;0.10;0.10;;;14.70;99.90;;;;;;5114010;27;20501;-66
2023/10/21 12:54:11;;;;;;;0.25;0.25;;;14.70;99.90;;;;;;5080429;28;20036;-66
2023/10/21 12:56:40;;;;;;;0.10;0.10;;;14.60;99.90;;;;;;5078146;28;20264;-67
2023/10/21 12:59:09;;;;;;;0.10;0.10;;;14.60;99.90;;;;;;5074949;28;20040;-66
2023/10/21 13:01:38;;;;;;;0.22;0.15;;;14.70;99.90;;;;;;5076627;28;20063;-66
2023/10/21 13:04:04;;;;;;;0.10;0.10;;;14.70;99.90;;;;;;5081243;28;20051;-66
2023/10/21 13:06:30;;;;;;;0.10;0.10;;;14.70;99.90;;;;;;5078333;28;20040;-66
2023/10/21 13:08:56;;;;;;;0.10;0.10;;;14.80;99.90;;;;;;5076248;28;20105;-67
2023/10/21 13:11:21;;;;;;;0.10;0.10;;;14.80;99.90;;;;;;5079712;28;20039;-65
2023/10/21 13:13:47;;;;;;;0.00;0.00;;;14.80;99.90;;;;;;5085443;28;20039;-66
2023/10/21 13:16:14;;;;;;;0.17;0.17;;;14.90;99.90;;;;;;5081384;28;20501;-66
2023/10/21 13:18:40;;;;;;;0.20;0.10;;;14.90;99.90;;;;;;5111447;27;20105;-66
2023/10/21 13:21:06;;;;;;;0.20;0.20;;;14.90;99.90;;;;;;5111684;27;20044;-66
2023/10/21 13:23:34;;;;;;;0.20;0.20;;;15.10;99.90;;;;;;5077999;28;20153;-66
2023/10/21 13:26:11;;;;;;;0.20;0.20;;;15.20;99.90;;;;;;5077027;27;20063;-67